Whale Point, California Weather observations

Data are for observation ending at time listed.
 Day   Time    Ave.   Ave.  Ave.  Vector   Max.   Stn.    Total    Solar   Ave.  
  of    of     Air    Rel.  Wind   Wind    Wind   Baro.  Precip.   Rad.    Soil  
Year   Day     Temp.  Hum.  Speed  Dir.    Gust   Pres.                    Temp. 
2014   (PST)    F      %     mph   deg.    mph     mb.     in.     W/m2     F   
------------------------------------------------------------------------------
 261   16:40   62.5    95    2.9     2      6.1   990.5    0.00     103    75.3
 261   16:50   63.0    95    2.5   318      4.7   990.5    0.00     137    75.4
 261   17:00   63.5    94    5.6    23     11.0   990.2    0.00     237    75.4
 261   17:10   65.4    88    4.1   336      9.2   990.2    0.00     261    75.5
 261   17:20   66.7    82    2.2   304      5.8   990.2    0.00     204    75.5
 261   17:30   66.4    82    2.6   329      6.9   990.2    0.00     136    75.5
 261   17:40   65.4    84    4.8    13     11.8   990.2    0.00      85    75.6
 261   17:50   64.6    85    7.4   353     13.8   990.2    0.00      37    75.6
 261   18:00   64.3    85    4.7   344     11.7   990.2    0.00      22    75.7
 261   18:10   64.2    85    5.5     1     12.3   990.2    0.00       6    75.7
 261   18:20   64.1    85    3.6    24      9.6   990.2    0.00       2    75.7
 261   18:30   63.9    86    7.6     3     15.2   990.5    0.00       0    75.7
 261   18:40   63.7    88    6.2     1      9.8   990.5    0.00       0    75.7
 261   18:50   63.5    89    5.6     2     13.8   990.5    0.00       0    75.7
 261   19:00   63.5    88    6.8     9     13.4   990.5    0.00       0    75.7
 261   19:10   63.4    88    5.1   342      9.3   990.5    0.00       0    75.7
 261   19:20   63.3    88    3.0   326      8.9   990.5    0.00       0    75.7
 261   19:30   63.2    88    3.5    21      6.4   990.9    0.00       0    75.6
 261   19:40   63.4    87    4.8    46      6.9   990.9    0.00       0    75.6
 261   19:50   63.3    88    2.5    70      5.3   990.9    0.00       0    75.6
 261   20:00   63.1    88    3.7    65      5.3   990.9    0.00       0    75.6
 261   20:10   62.6    86    4.2    56      5.7   990.9    0.00       0    75.5
 261   20:20   62.6    83    5.4    62      7.2   990.9    0.00       0    75.5
 261   20:30   62.6    82    6.4    44      8.6   990.9    0.00       0    75.4
 261   20:40   62.8    79    5.4    34      7.5   990.9    0.00       0    75.3
 261   20:50   62.8    78    5.2    41      6.6   990.9    0.00       0    75.3
 261   21:00   62.4    78    6.6    33      9.2   990.9    0.00       0    75.2
 261   21:10   62.6    77    7.1    36      9.1   990.9    0.00       0    75.2
 261   21:20   62.2    77    6.0    36      8.4   990.9    0.00       0    75.1
 261   21:30   61.6    78    5.5    26      6.9   990.9    0.00       0    75.1
 261   21:40   61.9    77    5.2    33      6.9   990.9    0.00       0    75.0
 261   21:50   62.5    76    5.8    42      9.1   990.9    0.00       0    74.9
 261   22:00   62.2    76    4.6    53      8.2   990.9    0.00       0    74.9
 261   22:10   62.3    76    4.8    65      8.3   990.9    0.00       0    74.8
 261   22:20   62.0    76    5.7    66      8.0   990.9    0.00       0    74.7
 261   22:30   62.3    77    4.2    67      6.9   991.2    0.00       0    74.6
 261   22:40   62.6    81    3.5    57      6.0   991.2    0.00       0    74.6
 261   22:50   62.7    84    5.5    38      8.6   991.2    0.00       0    74.5
 261   23:00   62.7    85    4.8    37      7.2   991.2    0.00       0    74.4
 261   23:10   62.3    83    2.5    27      4.4   991.5    0.00       0    74.4
 261   23:20   62.4    82    2.7    45      4.7   991.5    0.00       0    74.3
 261   23:30  99999.0   99999  99999.0   99999    99999.0   99999.0   99999.00   99999    99999.0
 261   23:40   61.8    81    4.6    50      7.7   991.5    0.00       0    74.1
 261   23:50   61.6    79    6.5    42      8.0   991.5    0.00       0    74.0
 262    0:00   61.5    78    6.1    40      8.6   991.2    0.00       0    74.0
 262    0:10   61.5    79    6.4    46      9.1   991.2    0.00       0    73.9
 262    0:20   61.7    82    4.6    45      7.0   991.5    0.00       0    73.8
 262    0:30   61.8    84    4.3    44      7.5   991.5    0.00       0    73.8
 262    0:40   62.1    84    4.4    50      6.7   991.5    0.00       0    73.7
 262    0:50   61.5    83    5.8    66      8.5   991.5    0.00       0    73.7
 262    1:00   61.7    81    6.0    62      9.7   991.5    0.00       0    73.6
 262    1:10   61.2    81    7.1    40      8.9   991.2    0.00       0    73.5
 262    1:20   61.4    80    6.8    63      9.3   991.2    0.00       0    73.4
 262    1:30   62.2    81    5.2    69      8.6   990.9    0.00       0    73.4
 262    1:40   62.6    79    4.0    68      7.7   990.9    0.00       0    73.3
 262    1:50   61.5    80    5.5    75      8.3   990.9    0.00       0    73.2
 262    2:00   61.1    81    6.2    79      9.3   990.9    0.00       0    73.2
 262    2:10   61.1    80    5.5    82      8.6   990.9    0.00       0    73.1
 262    2:20   60.7    80    5.8    68      8.2   990.9    0.00       0    73.1
 262    2:30   60.6    80    7.1    62      9.4   990.9    0.00       0    73.0
 262    2:40   60.8    80    6.9    71     10.0   990.9    0.00       0    73.0
 262    2:50   60.9    79    6.4    69      9.0   990.9    0.00       0    72.9
 262    3:00   60.9    79    6.9    70      9.8   990.9    0.00       0    72.8
 262    3:10   60.9    79    4.7    69      8.5   990.9    0.00       0    72.8
 262    3:20   61.3    79    1.8    81      3.8   990.9    0.00       0    72.7
 262    3:30   61.1    80    1.3    66      3.7   990.9    0.00       0    72.6
 262    3:40   60.9    79    3.4    34      6.7   990.9    0.00       0    72.6
 262    3:50   60.5    80    4.0    68      5.6   990.9    0.00       0    72.6
 262    4:00   60.7    80    3.9    69      6.2   990.9    0.00       0    72.5
 262    4:10   60.6    79    5.6    47      7.5   991.2    0.00       0    72.4
 262    4:20   61.0    80    3.1    43      5.6   991.2    0.00       0    72.4
 262    4:30   61.8    81    5.3    30      9.1   991.2    0.00       0    72.3
 262    4:40   61.2    80    5.8    60      7.9   991.2    0.00       0    72.2
 262    4:50   61.0    80    5.9    74      8.9   991.2    0.00       0    72.2
 262    5:00   61.3    79    4.4    78      6.5   991.2    0.00       0    72.1
 262    5:10   61.2    79    3.2    88      6.6   991.2    0.00       0    72.1
 262    5:20   61.4    79    2.3    83      3.4   991.2    0.00       0    72.0
 262    5:30   61.2    80    2.1   113      3.1   991.2    0.00       0    72.0
 262    5:40   61.0    81    2.3    93      5.6   991.5    0.00       1    71.9
 262    5:50   60.6    80    3.5    74      5.6   991.5    0.00       2    71.9
 262    6:00   61.2    79    3.7    78      5.4   991.5    0.00       5    71.8
 262    6:10   61.0    79    5.2    71      8.8   991.5    0.00       9    71.8
 262    6:20   60.9    79    5.9    69      8.7   991.5    0.00      12    71.7
 262    6:30   61.2    79    5.0    76      9.2   991.9    0.00      15    71.7
 262    6:40   62.0    76    4.2    81      6.5   991.9    0.00      18    71.6
 262    6:50   62.1    76    4.0    73      7.2   991.9    0.00      21    71.5
 262    7:00   62.6    76    3.6    74      6.1   991.9    0.00      23    71.5
 262    7:10   62.8    76    1.6   139      4.7   991.9    0.00      25    71.5
 262    7:20   62.1    79    1.4   149      2.3   991.9    0.00      27    71.4
 262    7:30   61.2    81    1.5   171      2.7   991.9    0.00      30    71.4
 262    7:40   60.9    82    2.2   178      3.8   991.9    0.00     154    71.3
 262    7:50   61.8    81    1.2   180      2.3   992.2    0.00     367    71.2
 262    8:00   62.8    80    1.8   175      2.8   992.2    0.00     407    71.2
 262    8:10   62.7    79    1.7   207      2.8   992.2    0.00     443    71.1
 262    8:20   61.5    84    2.6   202      3.9   992.2    0.00     477    71.1
 262    8:30   61.2    84    3.2   203      4.5   992.2    0.00     508    71.0
 262    8:40   61.2    84    3.2   206      4.4   992.6    0.00     537    71.0
 262    8:50   61.2    85    2.9   213      4.2   992.6    0.00     568    71.0
 262    9:00   62.1    83    2.6   195      4.2   992.2    0.00     597    70.9
 262    9:10   62.6    81    4.0   195      6.5   992.2    0.00     627    70.9
 262    9:20   61.8    83    4.0   200      5.6   992.2    0.00     651    70.9
 262    9:30   62.2    83    3.3   200      6.2   992.2    0.00     681    70.9
 262    9:40   62.9    81    3.6   203      6.5   992.2    0.00     706    70.9
 262    9:50   62.5    82    4.2   210      6.8   992.2    0.00     728    70.9
 262   10:00   62.9    82    4.3   221      6.7   992.2    0.00     750    70.8
 262   10:10   63.3    81    4.4   219      7.2   992.2    0.01     770    70.8
 262   10:20   63.9    80    4.8   216      7.7   992.2    0.00     790    70.8
 262   10:30   64.3    79    5.0   215      7.2   992.2    0.00     807    70.8
 262   10:40   64.3    80    5.0   219      6.7   992.2    0.00     821    70.8
 262   10:50   64.8    81    5.0   218      7.0   992.2    0.00     833    70.8
 262   11:00   64.6    82    5.3   217      7.5   992.2    0.00     836    70.8
 262   11:10   64.5    82    4.7   214      7.2   992.2    0.00     863    70.8
 262   11:20   64.8    81    4.9   223      7.4   992.2    0.00     862    70.8
 262   11:30   64.8    82    4.6   221      7.0   992.2    0.00     869    70.8
 262   11:40   65.2    82    4.4   212      7.5   992.2    0.00     875    70.8
 262   11:50   65.8    80    5.0   218      6.9   992.2    0.00     878    70.9
 262   12:00   65.8    80    4.7   208      7.2   992.2    0.00     878    70.9
 262   12:10   66.7    78    5.2   208      7.3   991.9    0.00     877    71.0
 262   12:20   67.0    77    5.2   220      8.0   991.9    0.00     875    71.0
 262   12:30   67.0    77    5.8   222      8.6   991.9    0.00     872    71.1
 262   12:40   66.4    78    5.7   228      8.4   991.5    0.00     866    71.2
 262   12:50   66.7    78    5.4   224      7.9   991.5    0.00     857    71.2
 262   13:00   66.2    78    5.7   224      8.9   991.5    0.00     848    71.3
 262   13:10   66.6    77    5.9   222      9.9   991.5    0.00     837    71.4
 262   13:20   67.2    75    6.1   219      8.8   991.2    0.00     824    71.5
 262   13:30   67.1    76    6.0   219      9.5   991.2    0.00     809    71.6
 262   13:40   67.6    76    5.7   214      8.1   991.2    0.00     792    71.7
 262   13:50   67.7    76    5.4   208      8.0   991.2    0.00     775    71.9
 262   14:00   67.4    77    4.8   209      7.5   990.9    0.00     753    72.0
 262   14:10   68.6    74    4.7   204      7.7   990.9    0.00     730    72.1
 262   14:20   68.9    74    4.6   217      8.6   990.9    0.00     709    72.2
 262   14:30   68.2    75    6.3   230     12.5   990.9    0.00     688    72.3
 262   14:40   67.5    77    6.4   234     10.7   990.5    0.00     662    72.4
 262   14:50   67.2    77    6.0   250     11.5   990.5    0.00     634    72.6
 262   15:00   67.8    75    6.9   232     13.6   990.5    0.00     606    72.7
 262   15:10   69.8    69    6.2   267     12.7   990.5    0.00     578    72.8
 262   15:20   69.5    69    5.4   260     14.5   990.5    0.00     548    73.0
 262   15:30   70.2    67    5.1   263     12.6   990.5    0.00     516    73.1
 262   15:40   69.5    68    5.4   245     12.3   990.5    0.00     481    73.2
 262   15:50   68.6    70    4.8   229      8.6   990.5    0.00     448    73.4
 262   16:00   68.3    71    4.3   192      8.0   990.5    0.00     413    73.5
 262   16:10   68.5    71    4.4   188      8.3   990.5    0.00     376    73.6
 262   16:20   66.6    76    4.9   204      8.6   990.5    0.00     341    73.8
 262   16:30   65.5    78    4.2   197      8.0   990.5    0.00     304    73.9

Return to Whale Point graphs page.


Western Regional Climate Center,wrcc@dri.edu